Terminal Aerodrome Forecast
Issued by NWS Pocatello, ID

Home | Current Version | Previous Version | Text Only | Print | Product List | Glossary On
Versions: 1 2 3 4 5 6 7 8 9 10 11 12 13 14 15 16 17 18 19
000
FTUS45 KPIH 261201 AAA
TAFPIH
TAF AMD
KPIH 261201Z 2612/2712 23015G25KT P6SM VCSH SCT015 OVC070
      TEMPO 2612/2615 -SHRA BKN015
     FM261600 25020G30KT P6SM VCSH SCT025 SCT035 BKN070
     FM262200 25014KT P6SM SCT060 BKN120=

USA.gov is the U.S. government's official web portal to all federal, state and local government web resources and services.